Time;durP1;ratioP1;P1;durP2;ratioP2;P2;SDS_P1;SDS_P2;PMS_P1;PMS_P2;Temp;Humidity;BMP_temperature;BMP_pressure;BME280_temperature;BME280_humidity;BME280_pressure;Samples;Min_cycle;Max_cycle;Signal;HPM_P1;HPM_P2
2022/07/13 00:02:25;;;;;;;5.05;1.30;;;27.10;46.30;;;;;;5038804;28;20125;-78
2022/07/13 00:04:51;;;;;;;2.08;0.85;;;27.00;46.10;;;;;;5054597;28;20060;-78
2022/07/13 00:07:17;;;;;;;2.13;1.30;;;27.00;46.40;;;;;;5041114;28;20033;-78
2022/07/13 00:09:42;;;;;;;3.03;1.58;;;26.90;46.40;;;;;;5040794;28;20486;-78
2022/07/13 00:12:08;;;;;;;4.43;1.40;;;26.90;46.80;;;;;;5058576;28;20037;-78
2022/07/13 00:14:34;;;;;;;2.22;1.30;;;26.90;46.60;;;;;;5040634;28;20037;-78
2022/07/13 00:17:00;;;;;;;1.52;1.20;;;26.80;46.60;;;;;;5040563;28;20055;-78
2022/07/13 00:19:28;;;;;;;1.98;1.30;;;26.80;46.90;;;;;;5037969;28;20065;-78
2022/07/13 00:21:55;;;;;;;2.40;1.10;;;26.70;47.10;;;;;;5038489;28;20017;-78
2022/07/13 00:24:21;;;;;;;4.50;1.50;;;26.70;46.90;;;;;;5038375;28;20025;-78
2022/07/13 00:26:46;;;;;;;5.95;1.35;;;26.60;47.00;;;;;;5037133;28;20021;-78
2022/07/13 00:29:12;;;;;;;1.80;1.27;;;26.50;47.40;;;;;;5038146;28;20404;-78
2022/07/13 00:31:38;;;;;;;2.47;1.45;;;26.40;47.70;;;;;;5038214;28;20400;-78
2022/07/13 00:34:04;;;;;;;3.10;1.25;;;26.40;47.80;;;;;;5037977;28;20040;-78
2022/07/13 00:36:29;;;;;;;3.75;1.20;;;26.30;48.00;;;;;;5038220;28;20511;-78
2022/07/13 00:38:55;;;;;;;2.08;1.45;;;26.30;48.10;;;;;;5036603;28;20562;-78
2022/07/13 00:41:20;;;;;;;3.15;1.20;;;26.30;48.40;;;;;;5038066;28;20039;-78
2022/07/13 00:43:46;;;;;;;2.72;1.30;;;26.10;48.70;;;;;;5037741;28;20022;-78
2022/07/13 00:46:13;;;;;;;2.90;1.35;;;26.10;48.50;;;;;;5037968;28;20028;-78
2022/07/13 00:48:39;;;;;;;1.85;1.05;;;26.00;48.70;;;;;;5037922;28;20532;-78
2022/07/13 00:51:06;;;;;;;5.32;1.50;;;25.90;49.00;;;;;;5037977;28;20025;-78
2022/07/13 00:53:39;;;;;;;2.53;1.50;;;25.90;49.00;;;;;;5037629;28;20034;-78
2022/07/13 00:56:06;;;;;;;2.45;1.33;;;25.90;49.10;;;;;;5037764;28;20055;-78
2022/07/13 00:58:32;;;;;;;2.30;1.05;;;25.90;49.00;;;;;;5037157;28;20491;-78
2022/07/13 01:00:58;;;;;;;4.32;1.33;;;25.80;49.30;;;;;;5043634;28;20028;-78
2022/07/13 01:03:24;;;;;;;4.55;1.88;;;25.80;49.20;;;;;;5036088;28;20021;-78
2022/07/13 01:05:53;;;;;;;2.35;1.58;;;25.80;49.30;;;;;;5036452;28;20099;-78
2022/07/13 01:08:20;;;;;;;2.45;1.35;;;25.70;49.70;;;;;;5037686;28;20064;-78
2022/07/13 01:10:48;;;;;;;2.50;1.40;;;25.60;49.80;;;;;;5050430;28;20021;-78
2022/07/13 01:13:16;;;;;;;3.30;1.52;;;25.60;50.00;;;;;;5041122;28;20111;-78
2022/07/13 01:15:42;;;;;;;4.28;1.38;;;25.60;50.30;;;;;;5037570;28;20021;-78
2022/07/13 01:18:12;;;;;;;2.25;1.58;;;25.60;50.20;;;;;;5042070;28;20542;-78
2022/07/13 01:20:39;;;;;;;5.68;1.52;;;25.50;50.10;;;;;;5036801;28;20113;-78
2022/07/13 01:23:10;;;;;;;2.08;1.50;;;25.40;50.60;;;;;;5051444;28;20107;-78
2022/07/13 01:25:36;;;;;;;3.85;1.52;;;25.50;50.30;;;;;;5044071;28;20111;-78
2022/07/13 01:28:02;;;;;;;4.00;1.50;;;25.50;50.60;;;;;;5037166;28;20030;-78
2022/07/13 01:30:27;;;;;;;2.05;1.45;;;25.50;50.40;;;;;;5038252;28;20036;-78
2022/07/13 01:32:53;;;;;;;2.28;1.55;;;25.40;50.50;;;;;;5056749;28;20021;-78
2022/07/13 01:35:22;;;;;;;3.20;1.33;;;25.30;50.70;;;;;;5056935;28;20086;-78
2022/07/13 01:37:48;;;;;;;3.55;1.67;;;25.30;50.70;;;;;;5056837;28;20028;-78
2022/07/13 01:40:15;;;;;;;3.53;1.40;;;25.30;50.90;;;;;;5054033;28;20026;-78
2022/07/13 01:42:46;;;;;;;5.10;1.40;;;25.20;51.00;;;;;;5036738;28;20048;-78
2022/07/13 01:45:14;;;;;;;3.33;1.77;;;25.20;50.90;;;;;;5036917;28;20025;-78
2022/07/13 01:47:44;;;;;;;2.35;1.80;;;25.20;51.00;;;;;;5036797;28;20396;-78
2022/07/13 01:50:22;;;;;;;4.10;1.67;;;25.10;50.80;;;;;;5036363;28;20037;-78
2022/07/13 01:52:48;;;;;;;3.45;1.45;;;25.00;51.50;;;;;;5036707;28;20025;-78
2022/07/13 01:55:14;;;;;;;3.08;1.58;;;25.10;52.00;;;;;;5036771;28;20029;-78
2022/07/13 01:57:40;;;;;;;2.58;1.60;;;24.90;51.90;;;;;;5036526;28;20080;-78
2022/07/13 02:00:10;;;;;;;2.28;1.55;;;24.90;51.70;;;;;;5039882;28;20025;-78
2022/07/13 02:02:36;;;;;;;;;;;24.90;52.10;;;;;;5054877;28;20017;-78
2022/07/13 02:05:02;;;;;;;2.95;1.55;;;24.90;52.10;;;;;;5056200;28;19916;-78
2022/07/13 02:07:27;;;;;;;5.90;1.60;;;24.90;52.00;;;;;;5053359;28;20029;-78
2022/07/13 02:09:53;;;;;;;5.65;1.50;;;24.80;52.30;;;;;;5056302;28;20072;-78
2022/07/13 02:12:19;;;;;;;1.90;1.70;;;24.80;52.10;;;;;;5056194;28;20499;-78
2022/07/13 02:14:46;;;;;;;7.20;1.73;;;24.80;52.10;;;;;;5041910;28;20029;-78
2022/07/13 02:17:12;;;;;;;2.38;1.70;;;24.70;52.50;;;;;;5037590;28;20021;-78
2022/07/13 02:19:37;;;;;;;3.85;2.15;;;24.60;53.40;;;;;;5047036;28;20068;-78
2022/07/13 02:22:03;;;;;;;2.35;1.48;;;24.50;53.30;;;;;;5054756;28;20021;-78
2022/07/13 02:24:29;;;;;;;2.35;1.58;;;24.40;53.40;;;;;;5054825;28;20029;-78
2022/07/13 02:26:54;;;;;;;2.25;1.40;;;24.40;54.20;;;;;;5054374;28;20067;-78
2022/07/13 02:29:20;;;;;;;2.20;1.50;;;24.30;53.80;;;;;;5049637;28;20037;-78
2022/07/13 02:31:46;;;;;;;2.53;1.60;;;24.40;53.90;;;;;;5035193;28;20079;-78
2022/07/13 02:34:11;;;;;;;2.97;1.50;;;24.40;54.10;;;;;;5035767;28;20060;-78
2022/07/13 02:36:37;;;;;;;2.92;1.70;;;24.40;53.60;;;;;;5035621;28;20530;-78
2022/07/13 02:39:03;;;;;;;5.18;1.77;;;24.40;53.60;;;;;;5035783;28;20116;-78
2022/07/13 02:41:40;;;;;;;2.58;2.00;;;24.30;53.30;;;;;;5035634;28;20021;-78
2022/07/13 02:44:06;;;;;;;2.25;1.67;;;24.30;53.70;;;;;;5035316;28;20068;-78
2022/07/13 02:46:31;;;;;;;3.45;1.70;;;24.30;53.80;;;;;;5035670;28;20075;-78
2022/07/13 02:48:57;;;;;;;4.30;1.83;;;24.30;53.80;;;;;;5034443;28;20033;-78
2022/07/13 02:51:23;;;;;;;4.28;1.90;;;24.30;54.10;;;;;;5043416;28;20503;-77
2022/07/13 02:53:48;;;;;;;2.05;1.77;;;24.20;54.10;;;;;;5055462;28;20049;-78
2022/07/13 02:56:14;;;;;;;4.25;1.95;;;24.20;54.50;;;;;;5052740;28;20487;-78
2022/07/13 02:58:40;;;;;;;3.47;1.58;;;24.20;54.60;;;;;;5051589;28;20516;-78
2022/07/13 03:01:05;;;;;;;5.72;1.92;;;24.10;54.70;;;;;;5047658;28;20025;-78
2022/07/13 03:03:31;;;;;;;2.95;1.60;;;24.10;54.50;;;;;;5055002;28;20111;-78
2022/07/13 03:05:57;;;;;;;2.78;2.00;;;24.10;54.50;;;;;;5055463;28;20100;-78
2022/07/13 03:08:23;;;;;;;2.40;1.48;;;24.00;55.60;;;;;;5049710;28;20037;-78
2022/07/13 03:10:49;;;;;;;5.00;1.55;;;23.90;55.00;;;;;;5035423;28;20030;-78
2022/07/13 03:13:15;;;;;;;1.98;1.58;;;23.90;54.90;;;;;;5035337;28;20032;-78
2022/07/13 03:15:42;;;;;;;3.45;1.70;;;23.90;55.80;;;;;;5035435;28;20021;-78
2022/07/13 03:18:08;;;;;;;3.05;1.70;;;23.80;55.50;;;;;;5047911;28;20032;-78
2022/07/13 03:20:34;;;;;;;2.45;1.70;;;23.80;55.60;;;;;;5054825;28;20488;-78
2022/07/13 03:23:00;;;;;;;4.15;1.98;;;23.80;55.70;;;;;;5055388;28;20399;-78
2022/07/13 03:25:26;;;;;;;4.80;1.58;;;23.80;55.70;;;;;;5049648;28;20060;-77
2022/07/13 03:27:52;;;;;;;3.42;1.73;;;23.60;56.30;;;;;;5035164;28;20049;-78
2022/07/13 03:30:17;;;;;;;2.67;1.70;;;23.60;56.10;;;;;;5035052;28;20045;-78
2022/07/13 03:32:48;;;;;;;4.18;1.50;;;23.60;56.40;;;;;;5034036;28;20022;-78
2022/07/13 03:35:15;;;;;;;3.35;2.15;;;23.60;56.50;;;;;;5035072;28;20404;-78
2022/07/13 03:37:41;;;;;;;5.00;1.95;;;23.60;56.10;;;;;;5034622;28;20100;-78
2022/07/13 03:40:07;;;;;;;2.70;1.80;;;23.60;56.30;;;;;;5035090;28;20111;-78
2022/07/13 03:42:34;;;;;;;2.63;1.75;;;23.60;56.70;;;;;;5035013;28;20033;-78
2022/07/13 03:45:01;;;;;;;2.72;2.05;;;23.50;56.90;;;;;;5054847;28;20052;-78
2022/07/13 03:47:26;;;;;;;2.80;1.60;;;23.50;56.50;;;;;;5058944;28;20075;-78
2022/07/13 03:49:59;;;;;;;3.75;2.25;;;23.50;56.50;;;;;;5058958;28;20037;-78
2022/07/13 03:52:25;;;;;;;5.05;1.90;;;23.50;56.30;;;;;;5039440;28;20034;-78
2022/07/13 03:54:50;;;;;;;5.93;1.67;;;23.40;56.80;;;;;;5038820;28;20680;-78
2022/07/13 03:57:16;;;;;;;4.70;2.08;;;23.40;56.60;;;;;;5058639;28;20036;-78
2022/07/13 03:59:42;;;;;;;2.70;1.90;;;23.30;56.80;;;;;;5040614;28;20782;-78
2022/07/13 04:02:07;;;;;;;3.40;1.80;;;23.30;56.80;;;;;;5058772;28;20032;-78
2022/07/13 04:04:33;;;;;;;4.43;2.05;;;23.30;57.20;;;;;;5057133;28;20049;-78
2022/07/13 04:07:01;;;;;;;3.35;1.88;;;23.30;57.30;;;;;;5057185;28;20036;-78
2022/07/13 04:09:27;;;;;;;3.35;2.17;;;23.20;56.90;;;;;;5057670;28;20029;-77
2022/07/13 04:11:52;;;;;;;3.15;1.80;;;23.20;56.90;;;;;;5058153;28;20033;-77
2022/07/13 04:14:18;;;;;;;3.05;1.95;;;23.20;57.30;;;;;;5058481;28;20033;-78
2022/07/13 04:16:44;;;;;;;3.58;1.73;;;23.10;57.80;;;;;;5041540;28;20040;-78
2022/07/13 04:19:09;;;;;;;2.75;2.00;;;23.10;57.50;;;;;;5056998;28;20033;-78
2022/07/13 04:21:35;;;;;;;3.13;2.08;;;23.10;57.60;;;;;;5056329;28;20118;-78
2022/07/13 04:24:10;;;;;;;3.20;1.63;;;23.00;57.50;;;;;;5058365;28;20029;-78
2022/07/13 04:26:36;;;;;;;3.63;1.98;;;23.00;57.80;;;;;;5038590;28;20476;-78
2022/07/13 04:29:01;;;;;;;4.68;1.95;;;22.90;58.00;;;;;;5037879;28;20037;-78
2022/07/13 04:31:27;;;;;;;2.97;2.50;;;22.90;58.20;;;;;;5046365;28;20037;-78
2022/07/13 04:33:53;;;;;;;5.82;1.80;;;22.80;58.50;;;;;;5038270;28;20030;-78
2022/07/13 04:36:18;;;;;;;2.70;1.70;;;22.80;58.60;;;;;;5037894;28;20029;-78
2022/07/13 04:38:44;;;;;;;2.90;2.10;;;22.80;59.00;;;;;;5038021;28;20087;-78
2022/07/13 04:41:11;;;;;;;6.18;1.95;;;22.80;58.70;;;;;;5036794;28;20026;-78
2022/07/13 04:43:36;;;;;;;2.85;1.90;;;22.70;59.50;;;;;;5041488;28;20054;-78
2022/07/13 04:46:03;;;;;;;3.65;2.00;;;22.70;59.10;;;;;;5057803;28;20077;-78
2022/07/13 04:48:29;;;;;;;4.07;2.10;;;22.70;59.00;;;;;;5057616;28;20023;-78
2022/07/13 04:50:55;;;;;;;3.45;2.35;;;22.70;59.40;;;;;;5057745;28;20025;-77
2022/07/13 04:53:21;;;;;;;2.95;2.35;;;22.70;59.50;;;;;;5039195;28;20057;-78
2022/07/13 04:55:47;;;;;;;2.55;2.00;;;22.70;59.90;;;;;;5044708;28;20031;-78
2022/07/13 04:58:12;;;;;;;4.35;2.38;;;22.70;59.70;;;;;;5057555;28;20029;-77
2022/07/13 05:00:38;;;;;;;3.78;2.00;;;22.70;59.60;;;;;;5057572;28;20081;-78
2022/07/13 05:03:04;;;;;;;3.38;1.90;;;22.70;60.10;;;;;;5041585;28;20020;-78
2022/07/13 05:05:32;;;;;;;2.28;1.90;;;22.80;59.70;;;;;;5048526;28;20045;-77
2022/07/13 05:08:01;;;;;;;3.40;2.45;;;22.80;59.60;;;;;;5043933;28;20113;-78
2022/07/13 05:10:27;;;;;;;4.80;2.13;;;22.80;59.30;;;;;;5037308;28;20156;-78
2022/07/13 05:12:53;;;;;;;2.78;2.42;;;22.80;58.80;;;;;;5047560;28;20029;-78
2022/07/13 05:15:19;;;;;;;2.70;2.00;;;22.90;59.30;;;;;;5037365;28;20408;-78
2022/07/13 05:17:45;;;;;;;2.78;1.95;;;22.80;59.10;;;;;;5040447;28;20025;-78
2022/07/13 05:20:11;;;;;;;5.50;2.10;;;22.90;59.20;;;;;;5045566;28;20084;-78
2022/07/13 05:22:36;;;;;;;4.10;2.17;;;22.90;59.40;;;;;;5056984;28;20029;-78
2022/07/13 05:25:03;;;;;;;2.85;1.95;;;22.90;58.90;;;;;;5055763;28;20036;-78
2022/07/13 05:27:28;;;;;;;3.53;2.50;;;22.90;58.80;;;;;;5056946;28;20511;-78
2022/07/13 05:30:14;;;;;;;5.28;2.35;;;22.90;58.70;;;;;;5050172;28;20025;-78
2022/07/13 05:32:39;;;;;;;2.88;1.92;;;22.90;59.90;;;;;;5035963;28;20025;-78
2022/07/13 05:35:05;;;;;;;3.38;2.10;;;22.90;59.50;;;;;;5036938;28;20031;-78
2022/07/13 05:37:31;;;;;;;3.15;2.10;;;22.80;59.80;;;;;;5037622;28;20045;-78
2022/07/13 05:39:56;;;;;;;2.67;2.22;;;22.90;59.50;;;;;;5036494;28;20034;-78
2022/07/13 05:42:22;;;;;;;3.58;2.50;;;22.90;59.40;;;;;;5036841;28;20018;-77
2022/07/13 05:44:48;;;;;;;5.55;2.33;;;23.00;59.50;;;;;;5047572;28;20032;-78
2022/07/13 05:47:13;;;;;;;8.82;2.15;;;22.90;59.80;;;;;;5056792;28;20191;-78
2022/07/13 05:49:39;;;;;;;5.47;2.83;;;22.90;59.10;;;;;;5053907;28;20033;-77
2022/07/13 05:52:05;;;;;;;7.00;2.08;;;23.00;59.20;;;;;;5036638;28;20025;-79
2022/07/13 05:54:31;;;;;;;5.00;2.33;;;23.00;58.90;;;;;;5036569;28;20029;-78
2022/07/13 05:56:57;;;;;;;2.92;2.17;;;23.00;58.50;;;;;;5053552;28;20487;-78
2022/07/13 06:02:44;;;;;;;3.60;1.75;;;22.90;60.10;;;;;;5036830;28;20033;-78
2022/07/13 06:05:10;;;;;;;2.97;1.92;;;22.90;59.30;;;;;;5036199;28;20058;-78
2022/07/13 06:07:36;;;;;;;3.78;2.28;;;22.90;60.80;;;;;;5036131;28;20056;-78
2022/07/13 06:10:04;;;;;;;3.45;2.03;;;22.90;60.30;;;;;;5036339;28;20025;-78
2022/07/13 06:12:29;;;;;;;3.65;2.17;;;22.90;60.40;;;;;;5045127;28;20068;-78
2022/07/13 06:14:57;;;;;;;4.18;2.17;;;23.00;60.30;;;;;;5036318;28;20045;-77
2022/07/13 06:17:22;;;;;;;3.63;2.70;;;23.00;59.60;;;;;;5042706;28;20070;-78
2022/07/13 06:19:49;;;;;;;2.42;2.00;;;23.10;60.00;;;;;;5055801;28;20028;-78
2022/07/13 06:22:16;;;;;;;2.80;1.95;;;23.10;60.50;;;;;;5037234;28;20096;-77
2022/07/13 06:24:42;;;;;;;3.42;2.20;;;23.10;60.40;;;;;;5036235;28;20021;-78
2022/07/13 06:27:08;;;;;;;3.97;1.98;;;23.10;59.60;;;;;;5036121;28;20026;-78
2022/07/13 06:29:34;;;;;;;5.55;2.63;;;23.10;59.70;;;;;;5035994;28;20029;-78
2022/07/13 06:32:00;;;;;;;4.13;1.92;;;23.20;60.70;;;;;;5036158;28;20507;-78
2022/07/13 06:34:26;;;;;;;3.85;2.53;;;23.20;61.10;;;;;;5035629;28;20500;-78
2022/07/13 06:36:52;;;;;;;3.97;2.50;;;23.20;60.80;;;;;;5035669;28;20484;-78
2022/07/13 06:39:18;;;;;;;4.10;2.30;;;23.30;60.10;;;;;;5034346;28;20029;-78
2022/07/13 06:41:45;;;;;;;3.25;2.25;;;23.30;60.00;;;;;;5035639;28;20503;-78
2022/07/13 06:44:11;;;;;;;3.38;1.80;;;23.30;60.30;;;;;;5035853;28;20555;-78
2022/07/13 06:46:36;;;;;;;3.50;2.53;;;23.40;60.20;;;;;;5048240;28;20033;-78
2022/07/13 06:49:02;;;;;;;3.60;2.53;;;23.40;60.60;;;;;;5055489;28;20025;-78
2022/07/13 06:51:28;;;;;;;4.55;2.30;;;23.40;60.60;;;;;;5055739;28;20032;-77
2022/07/13 06:53:53;;;;;;;2.97;2.63;;;23.50;60.20;;;;;;5038120;28;20557;-77
2022/07/13 06:56:20;;;;;;;2.33;2.00;;;23.60;60.50;;;;;;5047969;28;20021;-77
2022/07/13 06:58:46;;;;;;;3.30;2.20;;;23.70;60.20;;;;;;5054043;28;20411;-77
2022/07/13 07:01:12;;;;;;;4.63;2.42;;;23.70;61.10;;;;;;5055617;28;20045;-78
2022/07/13 07:03:38;;;;;;;2.85;1.95;;;23.80;60.50;;;;;;5055426;28;20032;-78
2022/07/13 07:06:04;;;;;;;3.00;2.10;;;23.80;61.00;;;;;;5044657;28;20095;-78
2022/07/13 07:08:30;;;;;;;5.47;2.47;;;23.90;60.70;;;;;;5035371;28;20112;-78
2022/07/13 07:10:56;;;;;;;2.88;1.90;;;23.80;61.50;;;;;;5039824;28;20063;-77
2022/07/13 07:13:21;;;;;;;3.63;2.47;;;23.90;60.60;;;;;;5036368;28;20022;-78
2022/07/13 07:15:47;;;;;;;3.22;2.17;;;24.00;61.20;;;;;;5043729;28;20369;-78
2022/07/13 07:18:12;;;;;;;4.57;2.30;;;24.10;61.60;;;;;;5054566;28;20025;-78
2022/07/13 07:20:39;;;;;;;6.28;2.30;;;24.20;61.40;;;;;;5053860;28;20062;-78
2022/07/13 07:23:04;;;;;;;2.72;1.98;;;24.30;61.50;;;;;;5055182;28;20025;-78
2022/07/13 07:25:30;;;;;;;3.85;1.95;;;24.40;60.90;;;;;;5052906;28;20110;-78
2022/07/13 07:27:56;;;;;;;2.72;1.95;;;24.70;60.60;;;;;;5033899;28;20108;-78
2022/07/13 07:30:21;;;;;;;5.72;2.33;;;24.80;61.00;;;;;;5035081;28;20373;-78
2022/07/13 07:32:47;;;;;;;2.80;1.90;;;25.30;59.30;;;;;;5035316;28;20553;-78
2022/07/13 07:35:12;;;;;;;4.85;1.65;;;26.40;56.90;;;;;;5055009;28;20060;-79
2022/07/13 07:37:39;;;;;;;3.78;1.55;;;29.00;51.10;;;;;;5044256;28;20053;-80
2022/07/13 07:40:06;;;;;;;3.53;1.40;;;31.40;45.70;;;;;;5033752;28;20034;-79
2022/07/13 07:42:32;;;;;;;3.83;1.40;;;32.90;41.90;;;;;;5035065;28;20048;-80
2022/07/13 07:44:57;;;;;;;3.08;1.83;;;34.50;38.80;;;;;;5033930;28;20468;-80
2022/07/13 07:47:25;;;;;;;2.40;1.48;;;36.30;35.60;;;;;;5046627;28;20092;-80
2022/07/13 07:49:52;;;;;;;4.57;2.00;;;38.10;33.50;;;;;;5052242;28;20021;-80
2022/07/13 07:52:18;;;;;;;2.95;1.60;;;39.70;30.40;;;;;;5055074;28;20503;-80
2022/07/13 07:54:45;;;;;;;2.65;1.30;;;40.60;29.40;;;;;;5054889;28;20442;-80
2022/07/13 07:57:11;;;;;;;4.45;1.15;;;41.10;28.20;;;;;;5054716;28;20487;-80
2022/07/13 07:59:37;;;;;;;4.25;1.52;;;41.70;27.40;;;;;;5046518;28;20056;-80
2022/07/13 08:02:02;;;;;;;3.38;1.48;;;42.10;27.10;;;;;;5054874;28;20036;-80
2022/07/13 08:04:28;;;;;;;2.05;1.35;;;42.60;26.20;;;;;;5054555;28;20064;-80
2022/07/13 08:06:54;;;;;;;4.40;1.50;;;42.90;26.30;;;;;;5053772;28;20507;-80
2022/07/13 08:09:20;;;;;;;3.55;1.23;;;43.40;25.80;;;;;;5034870;28;20037;-80
2022/07/13 08:11:45;;;;;;;2.67;1.27;;;43.60;25.10;;;;;;5045952;28;20057;-80
2022/07/13 08:14:11;;;;;;;2.53;1.40;;;44.00;24.50;;;;;;5053390;28;20032;-80
2022/07/13 08:16:37;;;;;;;5.18;1.33;;;44.10;24.70;;;;;;5054736;28;20029;-80
2022/07/13 08:19:03;;;;;;;2.17;1.17;;;44.80;23.90;;;;;;5054691;28;20044;-80
2022/07/13 08:21:28;;;;;;;5.55;1.75;;;44.90;23.60;;;;;;5054590;28;20087;-80
2022/07/13 08:23:57;;;;;;;3.78;1.30;;;45.10;23.80;;;;;;5035638;28;20085;-80
2022/07/13 08:26:25;;;;;;;3.38;1.17;;;45.30;23.10;;;;;;5042315;28;20028;-80
2022/07/13 08:28:51;;;;;;;2.72;1.50;;;45.20;22.90;;;;;;5054257;28;20029;-80
2022/07/13 08:31:22;;;;;;;7.00;1.52;;;45.60;22.80;;;;;;5057199;28;20021;-80
2022/07/13 08:39:18;;;;;;;5.43;1.40;;;46.10;23.00;;;;;;5038218;28;20075;-80
2022/07/13 08:41:44;;;;;;;2.85;1.10;;;46.30;22.20;;;;;;5048905;28;20103;-80
2022/07/13 08:44:10;;;;;;;2.40;1.38;;;46.70;22.20;;;;;;5055690;28;20032;-80
2022/07/13 08:46:36;;;;;;;3.83;1.67;;;46.70;21.50;;;;;;5037728;28;20036;-80
2022/07/13 08:49:02;;;;;;;2.03;1.10;;;46.80;21.80;;;;;;5037496;28;20025;-80
2022/07/13 08:51:32;;;;;;;3.53;1.40;;;46.90;21.60;;;;;;5038036;28;20029;-80
2022/07/13 08:53:59;;;;;;;3.90;1.40;;;46.80;20.80;;;;;;5037902;28;20061;-80
2022/07/13 08:56:25;;;;;;;1.70;1.05;;;46.70;21.60;;;;;;5038309;28;20080;-80
2022/07/13 08:58:52;;;;;;;2.67;1.10;;;46.70;21.60;;;;;;5047616;28;20041;-80
2022/07/13 09:01:19;;;;;;;;;;;47.30;21.70;;;;;;5055732;28;20614;-80
2022/07/13 09:03:45;;;;;;;2.90;1.20;;;47.60;20.80;;;;;;5036371;28;19909;-80
2022/07/13 09:06:40;;;;;;;2.88;1.30;;;47.70;20.70;;;;;;5037689;28;20030;-80
2022/07/13 09:09:07;;;;;;;1.58;1.27;;;47.80;20.60;;;;;;5037652;28;20061;-80
2022/07/13 09:11:33;;;;;;;3.83;1.40;;;48.10;20.80;;;;;;5036405;28;20033;-80
2022/07/13 09:13:58;;;;;;;3.15;1.30;;;48.30;19.80;;;;;;5044721;28;20149;-80
2022/07/13 09:16:26;;;;;;;3.15;1.38;;;48.30;19.60;;;;;;5057363;28;20123;-80
2022/07/13 09:18:56;;;;;;;2.58;1.20;;;47.80;20.20;;;;;;5057361;28;20403;-80
2022/07/13 09:21:23;;;;;;;1.85;1.20;;;48.10;20.00;;;;;;5056294;28;20151;-80
2022/07/13 09:23:54;;;;;;;2.17;1.00;;;48.10;20.40;;;;;;5038514;28;20044;-80
2022/07/13 09:26:21;;;;;;;1.75;0.95;;;48.40;20.10;;;;;;5036684;28;20060;-81
2022/07/13 09:28:49;;;;;;;3.90;1.30;;;48.70;20.30;;;;;;5037211;28;20017;-80
2022/07/13 09:31:16;;;;;;;3.30;1.40;;;48.80;19.00;;;;;;5037177;28;20117;-80
2022/07/13 09:33:44;;;;;;;3.75;1.15;;;48.50;19.10;;;;;;5037643;28;20025;-80
2022/07/13 09:36:18;;;;;;;3.50;1.10;;;48.80;19.70;;;;;;5036113;28;20044;-80
2022/07/13 09:38:44;;;;;;;1.77;1.00;;;48.50;19.30;;;;;;5037111;28;20029;-81
2022/07/13 09:41:19;;;;;;;5.70;1.30;;;48.60;19.90;;;;;;5036808;28;20030;-80
2022/07/13 09:46:57;;;;;;;2.03;1.08;;;48.90;19.00;;;;;;5042552;28;20090;-80
2022/07/13 09:49:41;;;;;;;2.58;1.30;;;48.80;19.40;;;;;;5056753;28;20503;-80
2022/07/13 09:52:18;;;;;;;1.60;1.27;;;48.90;18.40;;;;;;5056927;28;20039;-80
2022/07/13 09:54:50;;;;;;;3.10;1.02;;;48.90;18.70;;;;;;5050911;28;20403;-80
2022/07/13 09:57:20;;;;;;;2.92;1.10;;;48.80;19.30;;;;;;5035139;28;20411;-80
2022/07/13 09:59:46;;;;;;;1.40;1.10;;;48.90;19.80;;;;;;5037855;28;20033;-80
2022/07/13 10:02:15;;;;;;;1.40;1.00;;;49.00;19.40;;;;;;5052641;28;20017;-80
2022/07/13 10:04:41;;;;;;;3.13;1.23;;;48.60;19.70;;;;;;5036294;28;20053;-80
2022/07/13 10:07:08;;;;;;;1.50;1.15;;;48.60;20.20;;;;;;5036536;28;20081;-80
2022/07/13 10:09:38;;;;;;;4.10;0.90;;;48.80;19.90;;;;;;5036652;28;20516;-80
2022/07/13 10:12:06;;;;;;;1.65;1.23;;;48.70;18.40;;;;;;5036353;28;20410;-80
2022/07/13 10:14:32;;;;;;;3.80;1.02;;;48.70;19.20;;;;;;5036432;28;20021;-80
2022/07/13 10:17:00;;;;;;;2.58;1.60;;;48.90;19.50;;;;;;5040517;28;20039;-80
2022/07/13 10:19:25;;;;;;;3.17;1.13;;;48.40;18.40;;;;;;5056084;28;20028;-80
2022/07/13 10:22:09;;;;;;;2.42;1.08;;;48.00;19.40;;;;;;5055976;28;20876;-80
2022/07/13 10:24:36;;;;;;;2.00;1.17;;;48.00;19.90;;;;;;5047407;28;20116;-80
2022/07/13 10:27:26;;;;;;;1.67;1.00;;;48.10;20.20;;;;;;5036229;28;20033;-80
2022/07/13 10:29:54;;;;;;;2.17;0.90;;;47.90;18.90;;;;;;5036018;28;20049;-80
2022/07/13 10:32:26;;;;;;;1.42;1.00;;;47.80;18.40;;;;;;5035059;28;20064;-80
2022/07/13 10:35:12;;;;;;;2.65;1.10;;;47.50;18.40;;;;;;5034559;28;20567;-80
2022/07/13 10:37:56;;;;;;;3.20;0.95;;;47.30;19.40;;;;;;5035539;28;20032;-80
2022/07/13 10:40:23;;;;;;;3.40;1.15;;;46.80;19.70;;;;;;5046601;28;20124;-80
2022/07/13 10:42:56;;;;;;;5.72;0.95;;;46.20;19.10;;;;;;5055524;28;20024;-81
2022/07/13 10:45:32;;;;;;;1.70;0.75;;;45.40;19.80;;;;;;5055737;28;20052;-80
2022/07/13 10:47:58;;;;;;;4.22;1.10;;;44.10;21.00;;;;;;5045431;28;20040;-80
2022/07/13 10:50:26;;;;;;;1.00;0.70;;;43.30;22.90;;;;;;5036000;28;20060;-80
2022/07/13 10:52:52;;;;;;;1.30;0.88;;;42.50;23.20;;;;;;5034990;28;20060;-80
2022/07/13 10:55:27;;;;;;;1.98;0.80;;;42.10;24.10;;;;;;5035135;28;20057;-80
2022/07/13 10:57:53;;;;;;;4.03;0.90;;;41.60;24.50;;;;;;5035331;28;20033;-80
2022/07/13 11:00:19;;;;;;;3.40;0.90;;;40.50;24.90;;;;;;5041377;28;20029;-80
2022/07/13 11:03:06;;;;;;;4.82;1.20;;;40.10;26.20;;;;;;5050178;28;20056;-80
2022/07/13 11:05:36;;;;;;;1.63;1.02;;;39.90;26.60;;;;;;5035518;28;20045;-80
2022/07/13 11:08:15;;;;;;;1.55;0.82;;;39.80;27.20;;;;;;5035506;28;20104;-80
2022/07/13 11:10:41;;;;;;;2.88;1.00;;;39.80;26.20;;;;;;5037554;28;20025;-80
2022/07/13 11:13:14;;;;;;;1.83;1.10;;;39.70;27.00;;;;;;5055086;28;20027;-80
2022/07/13 11:15:50;;;;;;;2.33;1.15;;;39.50;26.80;;;;;;5048045;28;20399;-80
2022/07/13 11:18:25;;;;;;;3.10;1.10;;;39.30;26.20;;;;;;5049029;28;20515;-80
2022/07/13 11:21:12;;;;;;;1.70;0.95;;;39.00;27.10;;;;;;5055078;28;20051;-79
2022/07/13 11:26:46;;;;;;;3.80;1.10;;;38.30;27.50;;;;;;5035470;28;20064;-80
2022/07/13 11:29:20;;;;;;;1.65;1.00;;;38.20;27.30;;;;;;5035170;28;20056;-79
2022/07/13 11:31:53;;;;;;;2.00;1.20;;;38.20;27.80;;;;;;5035016;28;20033;-79
2022/07/13 11:34:19;;;;;;;3.92;1.00;;;38.40;28.10;;;;;;5033548;28;20026;-79
2022/07/13 11:36:46;;;;;;;3.75;0.88;;;38.40;27.50;;;;;;5035096;28;20021;-79
2022/07/13 11:39:23;;;;;;;3.70;1.10;;;38.30;27.50;;;;;;5035042;28;20026;-79
2022/07/13 11:41:51;;;;;;;1.92;0.85;;;38.30;27.20;;;;;;5046468;28;20055;-79
2022/07/13 11:44:19;;;;;;;2.15;0.90;;;38.30;28.20;;;;;;5044705;28;20499;-79
2022/07/13 11:46:46;;;;;;;2.00;1.30;;;38.40;27.80;;;;;;5034802;28;20032;-79
2022/07/13 11:49:11;;;;;;;1.90;1.05;;;38.30;27.50;;;;;;5034946;28;20029;-80
2022/07/13 11:51:37;;;;;;;3.15;0.98;;;38.30;27.40;;;;;;5034933;28;20032;-79
2022/07/13 11:54:09;;;;;;;2.65;0.95;;;38.40;27.70;;;;;;5034760;28;20060;-79
2022/07/13 11:56:44;;;;;;;1.73;1.02;;;38.30;26.60;;;;;;5034884;28;20064;-80
2022/07/13 11:59:10;;;;;;;2.28;1.10;;;38.30;26.70;;;;;;5033463;28;20491;-80
2022/07/13 12:01:35;;;;;;;3.70;1.08;;;38.10;26.80;;;;;;5051223;28;20120;-79
2022/07/13 12:04:03;;;;;;;2.97;1.00;;;37.90;26.60;;;;;;5053488;28;20080;-80
2022/07/13 12:06:28;;;;;;;1.75;0.80;;;37.90;27.70;;;;;;5059035;28;20013;-79
2022/07/13 12:08:56;;;;;;;2.55;1.02;;;37.80;26.00;;;;;;5052917;28;20037;-79
2022/07/13 12:11:22;;;;;;;1.98;1.00;;;37.60;25.80;;;;;;5046727;28;21252;-79
2022/07/13 12:13:48;;;;;;;5.13;1.00;;;37.30;26.20;;;;;;5058661;28;20498;-80
2022/07/13 12:16:15;;;;;;;2.65;1.38;;;37.30;27.20;;;;;;5053469;28;20085;-79
2022/07/13 12:19:08;;;;;;;1.92;1.13;;;37.40;27.90;;;;;;5054377;28;20025;-79
2022/07/13 12:21:34;;;;;;;1.75;1.25;;;37.40;27.10;;;;;;5058254;28;20546;-79
2022/07/13 12:24:02;;;;;;;2.70;1.00;;;37.50;26.00;;;;;;5039586;28;20057;-79
2022/07/13 12:26:29;;;;;;;2.55;0.90;;;37.60;26.80;;;;;;5038622;28;20036;-79
2022/07/13 12:28:55;;;;;;;1.90;0.95;;;37.70;27.00;;;;;;5038166;28;20034;-80
2022/07/13 12:31:22;;;;;;;1.60;0.90;;;37.70;27.50;;;;;;5038359;28;20036;-79
2022/07/13 12:33:50;;;;;;;3.75;1.10;;;37.80;27.50;;;;;;5038063;28;20049;-79
2022/07/13 12:36:19;;;;;;;1.23;0.80;;;37.90;26.70;;;;;;5037941;28;20061;-79
2022/07/13 12:39:04;;;;;;;1.60;0.95;;;37.90;27.40;;;;;;5038080;28;20061;-79
2022/07/13 12:41:40;;;;;;;1.35;0.90;;;37.80;27.10;;;;;;5046906;28;20025;-79
2022/07/13 12:44:07;;;;;;;4.60;1.33;;;37.90;27.10;;;;;;5056938;28;20025;-79
2022/07/13 12:46:54;;;;;;;4.60;1.23;;;37.90;27.10;;;;;;5038938;28;20026;-79
2022/07/13 12:49:28;;;;;;;2.85;1.08;;;37.90;27.40;;;;;;5037987;28;20484;-79
2022/07/13 12:51:54;;;;;;;4.65;1.30;;;37.80;25.70;;;;;;5038127;28;20022;-79
2022/07/13 12:54:42;;;;;;;2.35;1.05;;;37.60;24.60;;;;;;5036467;28;20120;-79
2022/07/13 12:57:16;;;;;;;1.73;1.05;;;37.30;26.10;;;;;;5037681;28;20400;-79
2022/07/13 12:59:58;;;;;;;4.10;1.23;;;37.40;26.20;;;;;;5038085;28;20021;-79
2022/07/13 13:02:24;;;;;;;3.58;0.80;;;37.30;26.70;;;;;;5057700;28;20032;-79
2022/07/13 13:04:50;;;;;;;4.70;1.15;;;37.50;27.00;;;;;;5051649;28;20042;-79
2022/07/13 13:07:16;;;;;;;2.17;0.82;;;37.60;25.80;;;;;;5037550;28;20220;-79